Redington, Nebraska
Current Conditions -  °F | °C
As of 9:53 AM on Monday 22 Dec 2014 (Local Time) from KAIA Reporting Station
Clear Clear  
Wind Chill: 24°   Ceiling: Unl
Heat Index: 35°   Visibility: 10mi
Dew Point: 25°   Wind: 18mph
Humidity: 67%   Direction: 290°WNW
Pressure: 29.61"   Gusts: NA
Location:  41.7379°N, 102.935°W
Report Text: KAIA 221653Z AUTO 29016KT 10SM CLR 02/M04 A2961 RMK AO2 SLP041 T00171039
Loading
Personal Weather Stations






























Interactive Weather Map New forecast layout! Learn more

10-Day Weather Forecast

Advertisements
Track Severe Weather on mobile